createdAt,value
2018-03-27T00:00:20.506Z,42.23
2018-03-27T00:02:47.962Z,44.67
2018-03-27T00:05:15.419Z,42.63
2018-03-27T00:07:43.553Z,43.30
2018-03-27T00:10:11.006Z,43.40
2018-03-27T00:12:38.472Z,42.77
2018-03-27T00:15:05.933Z,44.10
2018-03-27T00:17:33.397Z,43.87
2018-03-27T00:20:00.856Z,47.80
2018-03-27T00:22:28.309Z,44.47
2018-03-27T00:24:55.769Z,44.67
2018-03-27T00:27:35.010Z,42.10
2018-03-27T00:30:14.518Z,46.20
2018-03-27T00:32:53.867Z,43.07
2018-03-27T00:35:33.274Z,41.53
2018-03-27T00:38:13.468Z,47.60
2018-03-27T00:40:43.376Z,43.43
2018-03-27T00:43:14.584Z,45.17
2018-03-27T00:45:42.804Z,46.37
2018-03-27T00:48:10.272Z,46.10
2018-03-27T00:50:37.738Z,41.63
2018-03-27T00:53:05.200Z,42.70
2018-03-27T00:55:32.659Z,41.30
2018-03-27T00:58:00.130Z,41.70
2018-03-27T01:00:27.599Z,41.20
2018-03-27T01:02:55.834Z,44.03
2018-03-27T01:05:23.289Z,44.80
2018-03-27T01:07:50.761Z,40.50
2018-03-27T01:10:18.217Z,41.13
2018-03-27T01:12:45.682Z,42.27
2018-03-27T01:15:13.133Z,44.00
2018-03-27T01:17:40.582Z,41.00
2018-03-27T01:20:08.060Z,42.00
2018-03-27T01:22:35.517Z,41.57
2018-03-27T01:25:02.989Z,45.33
2018-03-27T01:27:31.202Z,41.53
2018-03-27T01:29:58.682Z,41.80
2018-03-27T01:32:26.120Z,43.30
2018-03-27T01:34:53.585Z,42.93
2018-03-27T01:37:21.056Z,41.87
2018-03-27T01:39:48.504Z,42.67
2018-03-27T01:42:15.962Z,41.77
2018-03-27T01:44:43.422Z,41.93
2018-03-27T01:47:10.875Z,41.00
2018-03-27T01:49:38.352Z,44.30
2018-03-27T01:52:05.831Z,43.03
2018-03-27T01:54:34.057Z,40.67
2018-03-27T01:57:01.506Z,41.87
2018-03-27T01:59:28.973Z,40.67
2018-03-27T02:01:56.417Z,41.10
2018-03-27T02:04:23.880Z,39.73
2018-03-27T02:06:51.341Z,39.00
2018-03-27T02:09:18.802Z,39.90
2018-03-27T02:11:51.816Z,38.90
2018-03-27T02:14:25.072Z,39.07
2018-03-27T02:16:58.265Z,39.17
2018-03-27T02:19:31.462Z,36.17
2018-03-27T02:21:58.417Z,40.40
2018-03-27T02:24:27.682Z,40.30
2018-03-27T02:26:55.134Z,38.63
2018-03-27T02:29:22.601Z,40.40
2018-03-27T02:31:50.054Z,40.77
2018-03-27T02:34:17.522Z,42.47
2018-03-27T02:36:44.983Z,42.23
2018-03-27T02:39:12.450Z,39.10
2018-03-27T02:41:39.915Z,38.83
2018-03-27T02:44:07.389Z,38.60
2018-03-27T02:46:35.602Z,40.50
2018-03-27T02:49:03.060Z,34.47
2018-03-27T02:51:30.526Z,35.80
2018-03-27T02:53:57.968Z,37.90
2018-03-27T02:56:25.433Z,36.57
2018-03-27T02:58:52.903Z,36.07
2018-03-27T03:01:20.358Z,36.43
2018-03-27T03:03:47.821Z,35.53
2018-03-27T03:06:15.274Z,32.10
2018-03-27T03:08:42.729Z,36.27
2018-03-27T03:11:10.205Z,37.17
2018-03-27T03:13:37.665Z,37.13
2018-03-27T03:16:05.125Z,33.80
2018-03-27T03:18:32.581Z,36.77
2018-03-27T03:21:00.036Z,36.27
2018-03-27T03:23:27.482Z,36.87
2018-03-27T03:25:54.949Z,37.50
2018-03-27T03:28:22.405Z,38.00
2018-03-27T03:30:49.869Z,35.40
2018-03-27T03:33:17.317Z,37.50
2018-03-27T03:35:44.778Z,35.50
2018-03-27T03:38:12.226Z,39.17
2018-03-27T03:40:39.684Z,36.20
2018-03-27T03:43:07.144Z,38.33
2018-03-27T03:45:34.636Z,36.83
2018-03-27T03:48:02.066Z,38.37
2018-03-27T03:50:29.525Z,36.80
2018-03-27T03:52:56.969Z,38.27
2018-03-27T03:55:24.440Z,35.90
2018-03-27T03:57:51.894Z,35.23
2018-03-27T04:00:19.426Z,38.83
2018-03-27T04:02:47.576Z,36.70
2018-03-27T04:05:15.054Z,36.07
2018-03-27T04:07:42.516Z,33.30
2018-03-27T04:10:10.758Z,34.77
2018-03-27T04:12:38.213Z,37.13
2018-03-27T04:15:05.669Z,33.63
2018-03-27T04:17:33.141Z,34.57
2018-03-27T04:20:00.597Z,35.37
2018-03-27T04:22:28.073Z,35.90
2018-03-27T04:24:55.525Z,36.90
2018-03-27T04:27:23.758Z,36.90
2018-03-27T04:29:51.205Z,36.07
2018-03-27T04:32:18.669Z,36.33
2018-03-27T04:34:46.117Z,35.80
2018-03-27T04:37:13.578Z,36.57
2018-03-27T04:39:41.033Z,37.67
2018-03-27T04:42:08.489Z,39.27
2018-03-27T04:44:35.961Z,37.20
2018-03-27T04:47:03.425Z,39.33
2018-03-27T04:49:30.882Z,37.27
2018-03-27T04:51:58.337Z,33.00
2018-03-27T04:54:25.794Z,38.13
2018-03-27T04:56:53.258Z,38.07
2018-03-27T04:59:20.719Z,37.13
2018-03-27T05:01:48.189Z,38.70
2018-03-27T05:04:15.645Z,37.07
2018-03-27T05:06:43.105Z,37.97
2018-03-27T05:09:10.556Z,37.30
2018-03-27T05:11:38.021Z,40.90
2018-03-27T05:14:05.481Z,38.67
2018-03-27T05:16:32.930Z,36.87
2018-03-27T05:19:00.386Z,38.40
2018-03-27T05:21:27.841Z,37.57
2018-03-27T05:23:56.061Z,41.10
2018-03-27T05:26:24.298Z,39.57
2018-03-27T05:28:51.748Z,41.60
2018-03-27T05:31:19.209Z,42.37
2018-03-27T05:33:46.665Z,39.57
2018-03-27T05:36:14.130Z,41.27
2018-03-27T05:38:41.603Z,40.30
2018-03-27T05:41:09.044Z,41.23
2018-03-27T05:43:36.493Z,41.07
2018-03-27T05:46:03.949Z,41.10
2018-03-27T05:48:31.405Z,39.10
2018-03-27T05:50:58.867Z,38.03
2018-03-27T05:53:26.325Z,41.67
2018-03-27T05:55:53.830Z,38.87
2018-03-27T05:58:21.250Z,42.70
2018-03-27T06:00:48.697Z,40.30
2018-03-27T06:03:16.162Z,40.70
2018-03-27T06:05:43.625Z,39.90
2018-03-27T06:08:11.857Z,41.47
2018-03-27T06:10:39.311Z,43.13
2018-03-27T06:13:06.774Z,42.17
2018-03-27T06:15:34.225Z,39.73
2018-03-27T06:18:01.688Z,42.43
2018-03-27T06:20:29.135Z,42.33
2018-03-27T06:22:56.594Z,43.77
2018-03-27T06:25:24.046Z,43.10
2018-03-27T06:27:51.504Z,44.47
2018-03-27T06:30:18.959Z,40.40
2018-03-27T06:32:46.425Z,38.63
2018-03-27T06:35:13.877Z,39.87
2018-03-27T06:37:41.341Z,39.93
2018-03-27T06:40:08.797Z,39.50
2018-03-27T06:42:36.257Z,39.10
2018-03-27T06:45:03.705Z,40.23
2018-03-27T06:47:31.169Z,39.13
2018-03-27T06:49:58.613Z,38.20
2018-03-27T06:52:26.076Z,38.30
2018-03-27T06:54:53.529Z,40.63
2018-03-27T06:57:20.993Z,36.30
2018-03-27T06:59:48.441Z,38.13
2018-03-27T07:02:15.914Z,37.10
2018-03-27T07:04:43.363Z,38.10
2018-03-27T07:07:10.819Z,36.47
2018-03-27T07:09:38.268Z,38.80
2018-03-27T07:12:05.717Z,35.97
2018-03-27T07:14:33.198Z,34.27
2018-03-27T07:17:00.630Z,34.70
2018-03-27T07:19:28.095Z,36.97
2018-03-27T07:21:55.545Z,35.27
2018-03-27T07:24:23.005Z,32.10
2018-03-27T07:26:50.452Z,34.73
2018-03-27T07:29:17.930Z,34.57
2018-03-27T07:31:45.378Z,33.97
2018-03-27T07:34:12.837Z,36.07
2018-03-27T07:36:40.314Z,36.13
2018-03-27T07:39:07.762Z,36.37
2018-03-27T07:41:35.210Z,35.43
2018-03-27T07:44:02.677Z,32.87
2018-03-27T07:46:30.126Z,37.10
2018-03-27T07:48:57.594Z,34.90
2018-03-27T07:51:25.055Z,33.37
2018-03-27T07:53:52.515Z,34.47
2018-03-27T07:56:19.961Z,32.43
2018-03-27T07:58:47.426Z,29.63
2018-03-27T08:01:14.879Z,30.73
2018-03-27T08:03:42.341Z,29.20
2018-03-27T08:06:09.799Z,30.20
2018-03-27T08:08:37.259Z,30.70
2018-03-27T08:11:04.732Z,30.33
2018-03-27T08:13:32.170Z,29.30
2018-03-27T08:15:59.624Z,30.50
2018-03-27T08:18:27.137Z,28.93
2018-03-27T08:20:54.587Z,26.77
2018-03-27T08:23:22.054Z,25.97
2018-03-27T08:25:49.511Z,23.60
2018-03-27T08:28:16.973Z,23.30
2018-03-27T08:30:44.429Z,21.40
2018-03-27T08:33:11.902Z,20.50
2018-03-27T08:35:39.353Z,21.87
2018-03-27T08:38:06.814Z,22.20
2018-03-27T08:40:34.287Z,20.10
2018-03-27T08:43:01.739Z,19.33
2018-03-27T08:45:29.225Z,18.87
2018-03-27T08:47:57.447Z,19.00
2018-03-27T08:50:24.913Z,19.20
2018-03-27T08:52:52.368Z,19.30
2018-03-27T08:55:19.830Z,22.53
2018-03-27T08:57:48.054Z,14.37
2018-03-27T09:00:15.528Z,13.40
2018-03-27T09:02:42.981Z,13.93
2018-03-27T09:05:11.221Z,16.80
2018-03-27T09:07:39.448Z,15.40
2018-03-27T09:10:06.921Z,16.77
2018-03-27T09:12:34.379Z,16.90
2018-03-27T09:15:02.650Z,15.40
2018-03-27T09:17:30.106Z,16.43
2018-03-27T09:19:57.575Z,17.13
2018-03-27T09:22:25.031Z,17.33
2018-03-27T09:24:52.490Z,16.30
2018-03-27T09:27:19.946Z,18.43
2018-03-27T09:29:47.457Z,16.47
2018-03-27T09:32:14.913Z,15.30
2018-03-27T09:34:42.387Z,15.97
2018-03-27T09:37:09.856Z,14.77
2018-03-27T09:39:37.321Z,16.40
2018-03-27T09:42:04.775Z,15.60
2018-03-27T09:44:32.242Z,14.87
2018-03-27T09:46:59.695Z,14.77
2018-03-27T09:49:27.160Z,15.27
2018-03-27T09:51:54.617Z,14.33
2018-03-27T09:54:22.152Z,14.10
2018-03-27T09:56:49.550Z,11.87
2018-03-27T09:59:17.781Z,13.47
2018-03-27T10:01:45.242Z,12.13
2018-03-27T10:04:12.709Z,12.17
2018-03-27T10:06:40.162Z,11.77
2018-03-27T10:09:07.629Z,12.47
2018-03-27T10:11:35.085Z,12.47
2018-03-27T10:14:02.550Z,12.73
2018-03-27T10:16:30.009Z,12.50
2018-03-27T10:18:57.462Z,13.30
2018-03-27T10:21:24.926Z,12.90
2018-03-27T10:23:52.376Z,12.13
2018-03-27T10:26:19.850Z,13.43
2018-03-27T10:28:48.068Z,13.03
2018-03-27T10:31:15.528Z,12.40
2018-03-27T10:33:43.030Z,12.57
2018-03-27T10:36:10.482Z,15.30
2018-03-27T10:38:37.927Z,13.70
2018-03-27T10:41:05.393Z,13.40
2018-03-27T10:43:32.853Z,14.80
2018-03-27T10:46:00.312Z,14.90
2018-03-27T10:48:27.756Z,13.40
2018-03-27T10:50:55.226Z,13.50
2018-03-27T10:53:23.446Z,15.07
2018-03-27T10:55:50.912Z,14.43
2018-03-27T10:58:18.377Z,13.37
2018-03-27T11:00:45.849Z,12.60
2018-03-27T11:03:13.309Z,13.40
2018-03-27T11:05:40.773Z,14.77
2018-03-27T11:08:08.237Z,13.83
2018-03-27T11:10:35.703Z,14.73
2018-03-27T11:13:03.927Z,15.70
2018-03-27T11:15:31.394Z,18.37
2018-03-27T11:17:58.845Z,18.03
2018-03-27T11:20:26.319Z,18.30
2018-03-27T11:22:53.779Z,18.70
2018-03-27T11:25:21.237Z,16.87
2018-03-27T11:27:48.697Z,17.60
2018-03-27T11:30:16.162Z,19.00
2018-03-27T11:32:43.621Z,21.30
2018-03-27T11:35:11.865Z,16.53
2018-03-27T11:37:39.321Z,15.70
2018-03-27T11:40:06.781Z,17.07
2018-03-27T11:42:34.237Z,16.90
2018-03-27T11:45:01.707Z,17.13
2018-03-27T11:47:29.165Z,18.67
2018-03-27T11:49:56.611Z,16.60
2018-03-27T11:52:24.081Z,17.40
2018-03-27T11:54:51.538Z,17.33
2018-03-27T11:57:18.996Z,16.60
2018-03-27T11:59:46.462Z,16.07
2018-03-27T12:02:13.921Z,16.87
2018-03-27T12:04:42.142Z,17.17
2018-03-27T12:07:09.619Z,18.20
2018-03-27T12:09:37.081Z,15.47
2018-03-27T12:12:04.546Z,14.17
2018-03-27T12:14:32.001Z,15.10
2018-03-27T12:16:59.469Z,13.90
2018-03-27T12:19:26.922Z,14.00
2018-03-27T12:21:54.389Z,14.63
2018-03-27T12:24:22.617Z,13.37
2018-03-27T12:26:50.081Z,14.73
2018-03-27T12:29:17.538Z,15.33
2018-03-27T12:31:45.060Z,12.73
2018-03-27T12:34:13.282Z,14.97
2018-03-27T12:36:40.750Z,12.20
2018-03-27T12:39:08.201Z,13.13
2018-03-27T12:41:35.669Z,12.10
2018-03-27T12:44:03.125Z,14.20
2018-03-27T12:46:30.593Z,15.07
2018-03-27T12:48:58.818Z,14.80
2018-03-27T12:51:26.289Z,13.97
2018-03-27T12:53:53.746Z,13.10
2018-03-27T12:56:21.213Z,12.87
2018-03-27T12:58:48.681Z,13.00
2018-03-27T13:01:16.179Z,14.80
2018-03-27T13:03:43.637Z,12.93
2018-03-27T13:06:11.106Z,12.70
2018-03-27T13:08:38.563Z,10.70
2018-03-27T13:11:06.035Z,10.70
2018-03-27T13:13:33.496Z,10.30
2018-03-27T13:16:00.995Z,10.17
2018-03-27T13:18:29.222Z,10.37
2018-03-27T13:20:56.710Z,10.37
2018-03-27T13:23:24.179Z,10.50
2018-03-27T13:25:51.630Z,10.83
2018-03-27T13:28:19.101Z,11.10
2018-03-27T13:30:47.317Z,10.87
2018-03-27T13:33:14.781Z,10.00
2018-03-27T13:35:42.236Z,11.00
2018-03-27T13:38:09.698Z,12.23
2018-03-27T13:40:37.154Z,10.73
2018-03-27T13:43:04.622Z,11.70
2018-03-27T13:45:32.074Z,10.63
2018-03-27T13:47:59.555Z,12.10
2018-03-27T13:50:28.501Z,11.37
2018-03-27T13:52:55.965Z,11.70
2018-03-27T13:55:23.423Z,10.80
2018-03-27T13:57:50.889Z,10.40
2018-03-27T14:00:18.351Z,11.00
2018-03-27T14:02:45.809Z,11.13
2018-03-27T14:05:13.277Z,11.23
2018-03-27T14:07:40.734Z,11.53
2018-03-27T14:10:08.199Z,11.33
2018-03-27T14:12:35.666Z,11.07
2018-03-27T14:15:03.900Z,10.23
2018-03-27T14:17:32.472Z,10.37
2018-03-27T14:19:59.930Z,10.77
2018-03-27T14:22:27.395Z,10.00
2018-03-27T14:24:54.845Z,10.93
2018-03-27T14:27:23.142Z,10.57
2018-03-27T14:29:50.604Z,10.20
2018-03-27T14:32:18.076Z,9.90
2018-03-27T14:34:46.303Z,10.60
2018-03-27T14:37:13.777Z,9.77
2018-03-27T14:39:41.235Z,10.63
2018-03-27T14:42:08.693Z,10.13
2018-03-27T14:44:36.207Z,9.77
2018-03-27T14:47:03.614Z,11.10
2018-03-27T14:49:31.066Z,8.97
2018-03-27T14:51:58.530Z,11.20
2018-03-27T14:54:25.986Z,12.07
2018-03-27T14:56:53.468Z,11.00
2018-03-27T14:59:21.685Z,10.80
2018-03-27T15:01:49.137Z,9.50
2018-03-27T15:04:16.606Z,10.40
2018-03-27T15:06:44.054Z,12.37
2018-03-27T15:09:11.525Z,11.33
2018-03-27T15:11:38.977Z,11.60
2018-03-27T15:14:06.453Z,10.67
2018-03-27T15:16:33.902Z,11.80
2018-03-27T15:19:01.371Z,10.33
2018-03-27T15:21:28.830Z,11.30
2018-03-27T15:23:56.302Z,11.10
2018-03-27T15:26:24.522Z,11.33
2018-03-27T15:28:51.993Z,10.67
2018-03-27T15:31:19.459Z,12.00
2018-03-27T15:33:46.917Z,10.77
2018-03-27T15:36:14.374Z,12.30
2018-03-27T15:38:41.843Z,13.40
2018-03-27T15:41:09.302Z,10.60
2018-03-27T15:43:36.771Z,11.23
2018-03-27T15:46:04.990Z,11.83
2018-03-27T15:48:32.453Z,11.97
2018-03-27T15:50:59.918Z,11.73
2018-03-27T15:53:27.392Z,11.17
2018-03-27T15:55:54.843Z,12.53
2018-03-27T15:58:22.315Z,10.17
2018-03-27T16:00:49.765Z,12.10
2018-03-27T16:03:17.230Z,10.57
2018-03-27T16:05:44.699Z,11.43
2018-03-27T16:08:12.939Z,13.60
2018-03-27T16:10:40.393Z,12.40
2018-03-27T16:13:08.629Z,11.80
2018-03-27T16:15:36.085Z,11.57
2018-03-27T16:18:03.558Z,12.03
2018-03-27T16:20:31.017Z,11.77
2018-03-27T16:22:58.487Z,13.93
2018-03-27T16:25:25.945Z,13.60
2018-03-27T16:27:53.409Z,13.43
2018-03-27T16:30:20.866Z,13.80
2018-03-27T16:32:48.317Z,13.07
2018-03-27T16:35:15.791Z,13.60
2018-03-27T16:37:43.250Z,13.43
2018-03-27T16:40:10.709Z,13.20
2018-03-27T16:42:38.173Z,14.93
2018-03-27T16:45:05.643Z,14.10
2018-03-27T16:47:33.861Z,13.80
2018-03-27T16:50:01.337Z,13.77
2018-03-27T16:52:28.795Z,14.87
2018-03-27T16:54:56.270Z,14.07
2018-03-27T16:57:23.726Z,15.43
2018-03-27T16:59:51.196Z,13.60
2018-03-27T17:02:18.652Z,14.60
2018-03-27T17:04:46.122Z,16.00
2018-03-27T17:07:14.337Z,15.57
2018-03-27T17:09:57.431Z,14.07
2018-03-27T17:12:24.881Z,13.97
2018-03-27T17:15:07.159Z,14.30
2018-03-27T17:17:34.620Z,13.70
2018-03-27T17:20:02.074Z,13.60
2018-03-27T17:22:29.540Z,13.13
2018-03-27T17:24:57.000Z,12.30
2018-03-27T17:27:24.455Z,13.20
2018-03-27T17:29:51.917Z,13.23
2018-03-27T17:32:19.378Z,12.77
2018-03-27T17:34:47.610Z,12.37
2018-03-27T17:37:15.063Z,14.43
2018-03-27T17:39:42.536Z,14.10
2018-03-27T17:42:09.989Z,13.37
2018-03-27T17:44:37.461Z,13.87
2018-03-27T17:47:04.921Z,15.33
2018-03-27T17:49:33.158Z,15.03
2018-03-27T17:52:00.605Z,15.10
2018-03-27T17:54:28.077Z,14.60
2018-03-27T17:56:55.540Z,14.03
2018-03-27T17:59:23.010Z,15.53
2018-03-27T18:01:50.494Z,14.37
2018-03-27T18:04:18.722Z,14.37
2018-03-27T18:06:46.191Z,17.50
2018-03-27T18:09:13.655Z,16.17
2018-03-27T18:11:41.134Z,16.57
2018-03-27T18:14:09.366Z,17.47
2018-03-27T18:16:36.850Z,16.63
2018-03-27T18:19:04.301Z,16.87
2018-03-27T18:21:31.758Z,16.47
2018-03-27T18:23:59.319Z,18.07
2018-03-27T18:26:26.723Z,16.73
2018-03-27T18:28:54.183Z,14.80
2018-03-27T18:31:21.681Z,15.57
2018-03-27T18:33:49.134Z,16.27
2018-03-27T18:36:16.602Z,15.43
2018-03-27T18:38:44.059Z,15.73
2018-03-27T18:41:11.528Z,17.17
2018-03-27T18:43:39.756Z,16.00
2018-03-27T18:46:07.222Z,15.60
2018-03-27T18:48:34.733Z,16.60
2018-03-27T18:51:02.193Z,16.37
2018-03-27T18:53:29.641Z,17.37
2018-03-27T18:55:57.101Z,17.47
2018-03-27T18:58:24.549Z,18.87
2018-03-27T19:00:52.782Z,18.10
2018-03-27T19:03:20.239Z,17.50
2018-03-27T19:05:47.705Z,18.37
2018-03-27T19:08:15.150Z,18.13
2018-03-27T19:10:42.609Z,16.90
2018-03-27T19:13:10.065Z,19.90
2018-03-27T19:15:37.538Z,18.40
2018-03-27T19:18:04.999Z,19.03
2018-03-27T19:20:32.481Z,19.33
2018-03-27T19:22:59.937Z,19.53
2018-03-27T19:25:28.172Z,18.47
2018-03-27T19:27:55.621Z,18.73
2018-03-27T19:30:23.860Z,20.80
2018-03-27T19:32:51.317Z,19.70
2018-03-27T19:35:18.777Z,17.80
2018-03-27T19:37:46.238Z,18.50
2018-03-27T19:40:13.701Z,17.87
2018-03-27T19:42:41.150Z,18.93
2018-03-27T19:45:08.610Z,18.70
2018-03-27T19:47:36.062Z,18.20
2018-03-27T19:50:03.523Z,18.13
2018-03-27T19:52:31.016Z,18.77
2018-03-27T19:54:58.479Z,17.53
2018-03-27T19:57:25.929Z,17.57
2018-03-27T19:59:53.404Z,17.83
2018-03-27T20:02:21.635Z,18.43
2018-03-27T20:04:49.090Z,18.73
2018-03-27T20:07:16.559Z,17.87
2018-03-27T20:09:44.020Z,19.37
2018-03-27T20:12:11.486Z,20.87
2018-03-27T20:14:38.932Z,18.57
2018-03-27T20:17:06.402Z,17.67
2018-03-27T20:19:33.860Z,18.77
2018-03-27T20:22:01.385Z,19.77
2018-03-27T20:24:28.817Z,19.40
2018-03-27T20:26:56.291Z,18.67
2018-03-27T20:29:23.746Z,19.17
2018-03-27T20:31:51.202Z,19.63
2018-03-27T20:34:18.654Z,19.63
2018-03-27T20:36:46.118Z,18.37
2018-03-27T20:39:13.580Z,18.00
2018-03-27T20:41:41.053Z,20.67
2018-03-27T20:44:08.508Z,18.33
2018-03-27T20:46:35.965Z,19.33
2018-03-27T20:49:03.491Z,21.23
2018-03-27T20:51:30.896Z,21.10
2018-03-27T20:53:58.348Z,19.80
2018-03-27T20:56:25.806Z,19.80
2018-03-27T20:58:53.285Z,19.23
2018-03-27T21:01:21.522Z,20.57
2018-03-27T21:03:48.974Z,18.90
2018-03-27T21:06:16.442Z,20.80
2018-03-27T21:08:43.893Z,21.23
2018-03-27T21:11:11.357Z,20.73
2018-03-27T21:13:38.809Z,21.00
2018-03-27T21:16:06.269Z,19.83
2018-03-27T21:18:33.718Z,20.00
2018-03-27T21:21:01.177Z,20.37
2018-03-27T21:23:28.648Z,20.87
2018-03-27T21:25:56.098Z,19.90
2018-03-27T21:28:23.553Z,21.00
2018-03-27T21:30:51.007Z,20.23
2018-03-27T21:33:18.470Z,19.20
2018-03-27T21:35:45.932Z,20.67
2018-03-27T21:38:13.385Z,19.60
2018-03-27T21:40:40.838Z,20.50
2018-03-27T21:43:08.305Z,16.77
2018-03-27T21:45:35.753Z,19.17
2018-03-27T21:48:03.211Z,20.40
2018-03-27T21:50:30.663Z,17.00
2018-03-27T21:52:58.126Z,18.67
2018-03-27T21:55:25.589Z,51.80
2018-03-27T21:57:53.051Z,56.57
2018-03-27T22:00:21.277Z,17.93
2018-03-27T22:02:48.757Z,17.33
2018-03-27T22:05:16.218Z,17.57
2018-03-27T22:07:43.676Z,17.20
2018-03-27T22:10:11.136Z,16.83
2018-03-27T22:12:38.608Z,17.27
2018-03-27T22:15:06.056Z,17.47
2018-03-27T22:17:33.522Z,15.67
2018-03-27T22:20:01.745Z,15.53
2018-03-27T22:22:29.196Z,16.47
2018-03-27T22:24:56.655Z,14.07
2018-03-27T22:27:24.104Z,15.40
2018-03-27T22:29:51.587Z,14.20
2018-03-27T22:32:19.033Z,14.03
2018-03-27T22:34:46.502Z,15.50
2018-03-27T22:37:13.960Z,16.27
2018-03-27T22:39:41.417Z,15.40
2018-03-27T22:42:08.867Z,13.67
2018-03-27T22:44:36.316Z,13.53
2018-03-27T22:47:03.773Z,14.23
2018-03-27T22:49:31.226Z,13.27
2018-03-27T22:51:58.693Z,13.40
2018-03-27T22:54:26.149Z,13.77
2018-03-27T22:56:53.605Z,13.20
2018-03-27T22:59:21.057Z,14.30
2018-03-27T23:01:48.520Z,13.00
2018-03-27T23:04:15.974Z,12.83
2018-03-27T23:06:44.214Z,14.23
2018-03-27T23:09:11.673Z,12.87
2018-03-27T23:11:39.129Z,12.83
2018-03-27T23:14:06.585Z,13.20
2018-03-27T23:16:34.050Z,12.27
2018-03-27T23:19:01.572Z,11.10
2018-03-27T23:21:29.027Z,11.80
2018-03-27T23:23:57.258Z,12.40
2018-03-27T23:26:24.718Z,11.50
2018-03-27T23:28:52.170Z,11.93
2018-03-27T23:31:19.625Z,11.43
2018-03-27T23:33:47.077Z,10.37
2018-03-27T23:36:14.542Z,10.50
2018-03-27T23:38:42.002Z,10.50
2018-03-27T23:41:09.470Z,11.00
2018-03-27T23:43:36.926Z,10.87
2018-03-27T23:46:04.406Z,10.93
2018-03-27T23:48:31.857Z,10.57
2018-03-27T23:50:59.313Z,10.27
2018-03-27T23:53:26.781Z,10.03
2018-03-27T23:55:54.997Z,12.03
2018-03-27T23:58:22.465Z,10.60
